Time;durP1;ratioP1;P1;durP2;ratioP2;P2;SDS_P1;SDS_P2;PMS_P1;PMS_P2;Temp;Humidity;BMP_temperature;BMP_pressure;BME280_temperature;BME280_humidity;BME280_pressure;Samples;Min_cycle;Max_cycle;Signal;HPM_P1;HPM_P2
2023/03/04 00:00:58;;;;;;;;;;;;;;;6.07;66.42;102610.84;5026758;28;20396;-61
2023/03/04 00:03:23;;;;;;;;;;;;;;;6.07;66.67;102614.38;5026522;28;19953;-61
2023/03/04 00:05:48;;;;;;;;;;;;;;;6.08;66.66;102610.78;5027380;28;19917;-61
2023/03/04 00:08:14;;;;;;;;;;;;;;;6.10;66.73;102610.69;5029559;28;20301;-61
2023/03/04 00:10:39;;;;;;;;;;;;;;;6.12;66.69;102614.06;5023419;28;19917;-62
2023/03/04 00:13:04;;;;;;;;;;;;;;;6.13;66.80;102605.22;5029274;28;20056;-61
2023/03/04 00:15:29;;;;;;;;;;;;;;;6.13;66.75;102606.06;5026481;28;19982;-61
2023/03/04 00:17:55;;;;;;;;;;;;;;;6.14;66.92;102613.03;5027205;28;19921;-61
2023/03/04 00:20:20;;;;;;;;;;;;;;;6.14;66.89;102606.91;5029574;28;19917;-61
2023/03/04 00:22:45;;;;;;;;;;;;;;;6.15;66.80;102608.59;5020389;28;19917;-61
2023/03/04 00:25:10;;;;;;;;;;;;;;;6.15;66.70;102598.88;5028894;28;19917;-61
2023/03/04 00:27:35;;;;;;;;;;;;;;;6.16;67.04;102600.56;5027360;28;20018;-61
2023/03/04 00:30:00;;;;;;;;;;;;;;;6.18;66.73;102606.59;5023379;28;22236;-61
2023/03/04 00:32:26;;;;;;;;;;;;;;;6.18;66.94;102608.41;5027725;28;19917;-61
2023/03/04 00:34:51;;;;;;;;;;;;;;;6.18;67.04;102601.31;5022932;28;20031;-61
2023/03/04 00:37:16;;;;;;;;;;;;;;;6.16;67.16;102597.94;5024592;28;19929;-61
2023/03/04 00:39:41;;;;;;;;;;;;;;;6.14;67.27;102599.00;5025883;28;19925;-61
2023/03/04 00:42:06;;;;;;;;;;;;;;;6.11;67.33;102591.28;5026652;28;20354;-61
2023/03/04 00:44:31;;;;;;;;;;;;;;;6.12;67.10;102603.50;5026227;28;19928;-61
2023/03/04 00:46:57;;;;;;;;;;;;;;;6.13;67.35;102599.94;5027642;28;19917;-61
2023/03/04 00:49:22;;;;;;;;;;;;;;;6.13;67.34;102599.94;5027620;28;20011;-61
2023/03/04 00:51:47;;;;;;;;;;;;;;;6.15;67.34;102603.31;5021052;28;19921;-61
2023/03/04 00:54:12;;;;;;;;;;;;;;;6.15;67.27;102598.88;5032196;28;19921;-61
2023/03/04 00:56:37;;;;;;;;;;;;;;;6.14;67.75;102604.25;5020419;28;20464;-61
2023/03/04 00:59:03;;;;;;;;;;;;;;;6.11;67.74;102602.66;5021780;28;19918;-61
2023/03/04 01:01:28;;;;;;;;;;;;;;;6.09;67.59;102601.09;5026349;28;19921;-61
2023/03/04 01:03:53;;;;;;;;;;;;;;;6.08;67.74;102604.66;5027977;28;19969;-61
2023/03/04 01:06:18;;;;;;;;;;;;;;;6.07;67.90;102605.56;5028763;28;19992;-61
2023/03/04 01:08:44;;;;;;;;;;;;;;;6.05;67.63;102597.75;5022574;28;19925;-61
2023/03/04 01:11:09;;;;;;;;;;;;;;;6.05;67.81;102610.94;5026137;28;19925;-61
2023/03/04 01:13:34;;;;;;;;;;;;;;;6.05;67.87;102603.03;5025239;28;20297;-61
2023/03/04 01:15:59;;;;;;;;;;;;;;;6.02;67.92;102605.03;5028050;28;19921;-61
2023/03/04 01:18:25;;;;;;;;;;;;;;;5.99;67.81;102606.06;5026254;28;19927;-62
2023/03/04 01:20:50;;;;;;;;;;;;;;;5.98;67.98;102607.00;5027469;28;19947;-61
2023/03/04 01:23:15;;;;;;;;;;;;;;;5.98;68.03;102607.00;5026664;28;20290;-61
2023/03/04 01:25:40;;;;;;;;;;;;;;;5.98;68.01;102600.91;5025297;28;20413;-61
2023/03/04 01:28:06;;;;;;;;;;;;;;;5.97;67.80;102594.78;5017078;28;19921;-61
2023/03/04 01:30:31;;;;;;;;;;;;;;;5.98;68.18;102603.53;5023480;28;20102;-61
2023/03/04 01:32:56;;;;;;;;;;;;;;;5.99;68.24;102594.69;5020225;28;19917;-61
2023/03/04 01:35:21;;;;;;;;;;;;;;;5.99;68.03;102598.16;5027837;28;19925;-61
2023/03/04 01:37:46;;;;;;;;;;;;;;;5.97;68.45;102592.13;5027096;28;19932;-61
2023/03/04 01:40:12;;;;;;;;;;;;;;;5.96;68.60;102594.88;5025281;28;19920;-61
2023/03/04 01:42:37;;;;;;;;;;;;;;;5.94;68.68;102596.78;5014940;28;19921;-61
2023/03/04 01:45:03;;;;;;;;;;;;;;;5.93;68.52;102593.28;5026319;28;19924;-61
2023/03/04 01:47:30;;;;;;;;;;;;;;;5.94;68.41;102586.22;5019196;28;19928;-61
2023/03/04 01:49:56;;;;;;;;;;;;;;;5.94;68.64;102579.16;5022589;28;19924;-61
2023/03/04 01:52:22;;;;;;;;;;;;;;;5.94;68.76;102580.94;5025181;28;19929;-62
2023/03/04 01:54:47;;;;;;;;;;;;;;;5.93;68.68;102568.72;5028067;28;19921;-61
2023/03/04 01:57:17;;;;;;;;;;;;;;;5.92;68.94;102569.66;5024961;28;19925;-61
2023/03/04 01:59:42;;;;;;;;;;;;;;;5.91;69.12;102566.16;5023092;28;20005;-61
2023/03/04 02:02:07;;;;;;;;;;;;;;;5.91;68.81;102560.91;5017351;28;20016;-61
2023/03/04 02:04:33;;;;;;;;;;;;;;;5.92;69.17;102567.88;5025687;28;19917;-61
2023/03/04 02:06:59;;;;;;;;;;;;;;;5.92;69.05;102553.84;5017785;28;20483;-61
2023/03/04 02:09:24;;;;;;;;;;;;;;;5.93;68.69;102560.78;5021209;28;19932;-61
2023/03/04 02:11:50;;;;;;;;;;;;;;;5.92;69.05;102564.38;5012901;28;19921;-61
2023/03/04 02:14:16;;;;;;;;;;;;;;;5.92;69.14;102554.69;5027131;28;19921;-61
2023/03/04 02:16:42;;;;;;;;;;;;;;;5.94;69.10;102557.22;5019940;28;19921;-61
2023/03/04 02:19:28;;;;;;;;;;;;;;;5.93;69.43;102552.88;5024435;28;20317;-61
2023/03/04 02:21:54;;;;;;;;;;;;;;;5.91;69.33;102553.00;5021336;28;19923;-61
2023/03/04 02:24:26;;;;;;;;;;;;;;;5.90;69.30;102546.03;5025995;28;19927;-61
2023/03/04 02:26:51;;;;;;;;;;;;;;;5.89;69.28;102546.94;5020992;28;19917;-61
2023/03/04 02:29:16;;;;;;;;;;;;;;;5.89;69.40;102539.91;5025154;28;19924;-61
2023/03/04 02:31:43;;;;;;;;;;;;;;;5.88;69.50;102542.59;5023718;28;19921;-61
2023/03/04 02:34:13;;;;;;;;;;;;;;;5.86;69.45;102539.22;5030119;28;19932;-61
2023/03/04 02:36:38;;;;;;;;;;;;;;;5.83;69.77;102539.44;5028471;28;19944;-61
2023/03/04 02:39:11;;;;;;;;;;;;;;;5.82;69.47;102543.84;5027448;28;20366;-61
2023/03/04 02:41:36;;;;;;;;;;;;;;;5.81;69.72;102536.03;5029709;28;20393;-61
2023/03/04 02:44:01;;;;;;;;;;;;;;;5.81;69.54;102534.25;5025435;28;20449;-61
2023/03/04 02:46:27;;;;;;;;;;;;;;;5.82;69.73;102538.56;5036189;28;19923;-61
2023/03/04 02:48:52;;;;;;;;;;;;;;;5.85;69.71;102537.53;5028722;28;20299;-61
2023/03/04 02:51:17;;;;;;;;;;;;;;;5.86;69.37;102539.22;5021746;28;19970;-61
2023/03/04 02:53:42;;;;;;;;;;;;;;;5.85;69.70;102530.47;5028374;28;19921;-61
2023/03/04 02:56:07;;;;;;;;;;;;;;;5.85;69.37;102529.63;5031396;28;19955;-61
2023/03/04 02:58:33;;;;;;;;;;;;;;;5.85;69.65;102529.63;5030625;28;19928;-61
2023/03/04 03:00:58;;;;;;;;;;;;;;;5.85;69.72;102529.63;5030743;28;19917;-61
2023/03/04 03:03:23;;;;;;;;;;;;;;;5.85;69.53;102525.19;5029798;28;20527;-61
2023/03/04 03:05:48;;;;;;;;;;;;;;;5.84;69.81;102523.50;5028927;28;19917;-61
2023/03/04 03:08:13;;;;;;;;;;;;;;;5.83;69.96;102529.72;5023992;28;20303;-61
2023/03/04 03:10:39;;;;;;;;;;;;;;;5.83;69.97;102528.88;5028558;28;19925;-60
2023/03/04 03:13:04;;;;;;;;;;;;;;;5.79;70.08;102520.31;5024029;28;19917;-61
2023/03/04 03:15:29;;;;;;;;;;;;;;;5.77;69.97;102516.06;5029832;28;19982;-61
2023/03/04 03:17:54;;;;;;;;;;;;;;;5.78;70.06;102509.84;5030784;28;20301;-61
2023/03/04 03:20:19;;;;;;;;;;;;;;;5.78;70.32;102516.00;5030546;28;19914;-61
2023/03/04 03:22:45;;;;;;;;;;;;;;;5.78;70.09;102518.63;5031372;28;19955;-61
2023/03/04 03:25:11;;;;;;;;;;;;;;;5.77;70.09;102516.91;5024592;28;19956;-61
2023/03/04 03:27:36;;;;;;;;;;;;;;;5.77;70.07;102518.69;5030757;28;20411;-61
2023/03/04 03:30:02;;;;;;;;;;;;;;;5.77;70.04;102510.78;5023507;28;19924;-61
2023/03/04 03:32:27;;;;;;;;;;;;;;;5.75;70.22;102515.31;5030015;28;20003;-61
2023/03/04 03:34:52;;;;;;;;;;;;;;;5.76;70.33;102509.94;5029098;28;19932;-61
2023/03/04 03:37:17;;;;;;;;;;;;;;;5.73;70.29;102511.94;5024924;28;19921;-61
2023/03/04 03:39:43;;;;;;;;;;;;;;;5.72;70.24;102519.00;5023873;28;20585;-61
2023/03/04 03:42:08;;;;;;;;;;;;;;;5.70;70.71;102509.50;5023461;28;19925;-61
2023/03/04 03:44:33;;;;;;;;;;;;;;;5.69;70.57;102513.94;5025558;28;20322;-61
2023/03/04 03:46:58;;;;;;;;;;;;;;;5.68;70.69;102506.13;5026979;28;19913;-61
2023/03/04 03:49:23;;;;;;;;;;;;;;;5.67;70.28;102504.44;5024579;28;19923;-61
2023/03/04 03:51:49;;;;;;;;;;;;;;;5.60;70.47;102490.81;5028483;28;20374;-61
2023/03/04 03:54:14;;;;;;;;;;;;;;;5.62;70.53;102498.59;5028865;28;19952;-61
2023/03/04 03:56:39;;;;;;;;;;;;;;;5.59;70.63;102494.38;5026295;28;19917;-61
2023/03/04 03:59:04;;;;;;;;;;;;;;;5.56;70.59;102502.50;5028996;28;20452;-61
2023/03/04 04:01:29;;;;;;;;;;;;;;;5.55;70.46;102499.00;5028177;28;20432;-61
2023/03/04 04:03:54;;;;;;;;;;;;;;;5.58;70.68;102503.22;5028172;28;20011;-61
2023/03/04 04:06:20;;;;;;;;;;;;;;;5.59;70.42;102499.66;5025097;28;20484;-61
2023/03/04 04:08:45;;;;;;;;;;;;;;;5.60;70.60;102507.47;5026421;28;19964;-61
2023/03/04 04:11:11;;;;;;;;;;;;;;;5.61;70.31;102503.03;5025132;28;19921;-61
2023/03/04 04:13:36;;;;;;;;;;;;;;;5.63;70.61;102508.22;5026377;28;19932;-61
2023/03/04 04:16:01;;;;;;;;;;;;;;;5.64;70.44;102507.25;5027434;28;19917;-61
2023/03/04 04:18:26;;;;;;;;;;;;;;;5.63;70.44;102509.06;5027252;28;19921;-61
2023/03/04 04:20:52;;;;;;;;;;;;;;;5.63;70.24;102505.56;5027561;28;20409;-61
2023/03/04 04:23:17;;;;;;;;;;;;;;;5.64;70.10;102502.00;5024377;28;19917;-61
2023/03/04 04:25:42;;;;;;;;;;;;;;;5.57;70.35;102506.81;5023238;28;19925;-61
2023/03/04 04:28:07;;;;;;;;;;;;;;;5.55;70.23;102508.69;5030131;28;19923;-61
2023/03/04 04:30:33;;;;;;;;;;;;;;;5.54;70.52;102507.00;5025128;28;20437;-61
2023/03/04 04:33:00;;;;;;;;;;;;;;;5.52;70.40;102504.47;5024659;28;19924;-61
2023/03/04 04:35:25;;;;;;;;;;;;;;;5.52;70.69;102501.84;5025528;28;19917;-60
2023/03/04 04:37:51;;;;;;;;;;;;;;;5.52;70.42;102508.91;5028960;28;20325;-61
2023/03/04 04:40:16;;;;;;;;;;;;;;;5.51;70.57;102510.69;5021569;28;19987;-61
2023/03/04 04:42:41;;;;;;;;;;;;;;;5.50;70.65;102510.78;5023690;28;19920;-61
2023/03/04 04:45:06;;;;;;;;;;;;;;;5.48;70.84;102504.75;5026963;28;19917;-60
2023/03/04 04:47:32;;;;;;;;;;;;;;;5.47;70.93;102509.16;5028385;28;19913;-61
2023/03/04 04:49:57;;;;;;;;;;;;;;;5.48;70.97;102512.66;5019951;28;19917;-61
2023/03/04 04:52:22;;;;;;;;;;;;;;;5.47;70.94;102514.44;5027601;28;19921;-61
2023/03/04 04:54:47;;;;;;;;;;;;;;;5.48;70.75;102513.50;5020524;28;19917;-61
2023/03/04 04:57:12;;;;;;;;;;;;;;;5.47;70.96;102514.44;5026895;28;20574;-61
2023/03/04 04:59:37;;;;;;;;;;;;;;;5.47;71.20;102513.59;5027985;28;19917;-61
2023/03/04 05:02:03;;;;;;;;;;;;;;;5.46;70.88;102520.66;5026737;28;20516;-61
2023/03/04 05:04:28;;;;;;;;;;;;;;;5.45;70.92;102512.84;5022373;28;19914;-61
2023/03/04 05:06:53;;;;;;;;;;;;;;;5.43;71.33;102520.84;5023664;28;19924;-60
2023/03/04 05:09:19;;;;;;;;;;;;;;;5.44;71.09;102526.97;5024915;28;19917;-61
2023/03/04 05:11:44;;;;;;;;;;;;;;;5.43;71.38;102520.00;5026187;28;19917;-61
2023/03/04 05:14:10;;;;;;;;;;;;;;;5.44;71.25;102519.91;5025328;28;19975;-61
2023/03/04 05:16:35;;;;;;;;;;;;;;;5.46;71.38;102515.38;5018297;28;19936;-60
2023/03/04 05:19:00;;;;;;;;;;;;;;;5.48;71.38;102517.91;5027246;28;20024;-60
2023/03/04 05:21:25;;;;;;;;;;;;;;;5.49;71.31;102514.34;5027114;28;20406;-61
2023/03/04 05:23:51;;;;;;;;;;;;;;;5.49;71.29;102509.94;5024075;28;19924;-61
2023/03/04 05:26:17;;;;;;;;;;;;;;;5.50;71.38;102511.63;5027323;28;20507;-61
2023/03/04 05:28:42;;;;;;;;;;;;;;;5.50;71.48;102510.78;5026429;28;19918;-61
2023/03/04 05:31:08;;;;;;;;;;;;;;;5.48;71.52;102513.50;5023596;28;19917;-61
2023/03/04 05:33:33;;;;;;;;;;;;;;;5.48;71.19;102513.50;5021269;28;19960;-60
2023/03/04 05:35:59;;;;;;;;;;;;;;;5.49;71.34;102514.34;5023051;28;19917;-60
2023/03/04 05:38:24;;;;;;;;;;;;;;;5.48;71.52;102517.91;5026016;28;19925;-60
2023/03/04 05:40:54;;;;;;;;;;;;;;;5.46;71.98;102517.16;5024166;28;19925;-60
2023/03/04 05:43:20;;;;;;;;;;;;;;;5.45;72.11;102520.75;5028012;28;20511;-62
2023/03/04 05:45:47;;;;;;;;;;;;;;;5.43;72.07;102520.84;5026090;28;19917;-61
2023/03/04 05:48:12;;;;;;;;;;;;;;;5.44;72.07;102521.69;5025444;28;21871;-61
2023/03/04 05:50:38;;;;;;;;;;;;;;;5.44;72.18;102526.97;5019866;28;20406;-61
2023/03/04 05:53:03;;;;;;;;;;;;;;;5.44;72.20;102526.97;5027009;28;20074;-61
2023/03/04 05:55:28;;;;;;;;;;;;;;;5.42;72.30;102524.41;5027319;28;19960;-61
2023/03/04 05:57:54;;;;;;;;;;;;;;;5.42;72.56;102534.13;5022644;28;19936;-61
2023/03/04 06:00:19;;;;;;;;;;;;;;;5.41;72.62;102527.16;5014351;28;20022;-61
2023/03/04 06:02:44;;;;;;;;;;;;;;;5.40;72.93;102528.94;5019180;28;19964;-60
2023/03/04 06:05:10;;;;;;;;;;;;;;;5.40;72.68;102528.94;5023297;28;20500;-60
2023/03/04 06:07:36;;;;;;;;;;;;;;;5.41;72.97;102527.16;5019322;28;20018;-61
2023/03/04 06:10:01;;;;;;;;;;;;;;;5.41;72.58;102533.25;5024518;28;19983;-61
2023/03/04 06:12:27;;;;;;;;;;;;;;;5.41;72.88;102527.16;5024820;28;20407;-60
2023/03/04 06:14:53;;;;;;;;;;;;;;;5.39;72.69;102537.78;5019663;28;19921;-61
2023/03/04 06:17:18;;;;;;;;;;;;;;;5.38;72.72;102533.47;5020553;28;19951;-61
2023/03/04 06:19:43;;;;;;;;;;;;;;;5.37;73.09;102530.91;5024752;28;20004;-62
2023/03/04 06:22:09;;;;;;;;;;;;;;;5.35;73.09;102533.66;5025190;28;20434;-60
2023/03/04 06:24:34;;;;;;;;;;;;;;;5.33;73.26;102529.41;5022234;28;19983;-61
2023/03/04 06:26:59;;;;;;;;;;;;;;;5.33;73.28;102535.53;5025051;28;19971;-61
2023/03/04 06:29:24;;;;;;;;;;;;;;;5.32;73.32;102541.75;5028117;28;19917;-61
2023/03/04 06:31:49;;;;;;;;;;;;;;;5.33;73.59;102534.69;5022969;28;19917;-61
2023/03/04 06:34:15;;;;;;;;;;;;;;;5.31;74.01;102539.22;5020447;28;20309;-61
2023/03/04 06:36:40;;;;;;;;;;;;;;;5.29;74.28;102536.66;5020463;28;19918;-61
2023/03/04 06:39:06;;;;;;;;;;;;;;;5.27;74.49;102539.41;5023694;28;19960;-61
2023/03/04 06:41:31;;;;;;;;;;;;;;;5.27;74.68;102541.19;5025452;28;20386;-61
2023/03/04 06:43:57;;;;;;;;;;;;;;;5.26;74.49;102542.97;5033139;28;19916;-61
2023/03/04 06:46:22;;;;;;;;;;;;;;;5.27;74.87;102547.31;5024840;28;19917;-61
2023/03/04 06:48:49;;;;;;;;;;;;;;;5.19;75.06;102525.00;5024161;28;22261;-61
2023/03/04 06:51:15;;;;;;;;;;;;;;;5.25;75.04;102543.06;5023775;28;19917;-61
2023/03/04 06:53:40;;;;;;;;;;;;;;;5.25;74.75;102543.06;5025201;28;19921;-61
2023/03/04 06:56:06;;;;;;;;;;;;;;;5.26;74.88;102545.63;5025541;28;20016;-61
2023/03/04 06:58:31;;;;;;;;;;;;;;;5.28;74.68;102542.88;5015703;28;20337;-61
2023/03/04 07:00:56;;;;;;;;;;;;;;;5.29;74.80;102544.56;5020717;28;19917;-61
2023/03/04 07:03:22;;;;;;;;;;;;;;;5.32;74.79;102554.06;5020180;28;20369;-61
2023/03/04 07:05:47;;;;;;;;;;;;;;;5.34;75.04;102553.03;5021457;28;19917;-61
2023/03/04 07:08:12;;;;;;;;;;;;;;;5.31;75.10;102549.75;5024781;28;19925;-61
2023/03/04 07:10:38;;;;;;;;;;;;;;;5.27;75.51;102546.47;5020581;28;19967;-60
2023/03/04 07:13:03;;;;;;;;;;;;;;;5.26;75.69;102547.41;5025238;28;20020;-61
2023/03/04 07:15:28;;;;;;;;;;;;;;;5.24;75.83;102542.22;5017148;28;19949;-61
2023/03/04 07:17:53;;;;;;;;;;;;;;;5.25;75.74;102550.97;5028654;28;19978;-61
2023/03/04 07:20:19;;;;;;;;;;;;;;;5.25;75.75;102548.34;5027792;28;19924;-61
2023/03/04 07:22:44;;;;;;;;;;;;;;;5.25;76.19;102551.81;5027693;28;19953;-61
2023/03/04 07:25:09;;;;;;;;;;;;;;;5.26;76.08;102555.31;5027569;28;19917;-61
2023/03/04 07:27:34;;;;;;;;;;;;;;;5.26;76.20;102560.56;5028567;28;19969;-61
2023/03/04 07:30:00;;;;;;;;;;;;;;;5.25;76.18;102562.34;5015325;28;19917;-61
2023/03/04 07:32:25;;;;;;;;;;;;;;;5.23;76.22;102561.59;5025369;28;19956;-61
2023/03/04 07:34:50;;;;;;;;;;;;;;;5.21;76.47;102570.53;5025650;28;19917;-61
2023/03/04 07:37:15;;;;;;;;;;;;;;;5.20;76.14;102567.06;5026264;28;19955;-61
2023/03/04 07:39:40;;;;;;;;;;;;;;;5.22;76.12;102569.59;5027227;28;19925;-60
2023/03/04 07:42:05;;;;;;;;;;;;;;;5.19;76.21;102572.41;5024334;28;19914;-61
2023/03/04 07:44:31;;;;;;;;;;;;;;;5.17;76.84;102572.50;5026406;28;20000;-61
2023/03/04 07:46:56;;;;;;;;;;;;;;;5.17;76.71;102576.91;5029146;28;19913;-61
2023/03/04 07:49:21;;;;;;;;;;;;;;;5.14;77.05;102575.31;5027842;28;20004;-61
2023/03/04 07:51:46;;;;;;;;;;;;;;;5.15;77.08;102579.63;5024946;28;19924;-61
2023/03/04 07:54:11;;;;;;;;;;;;;;;5.13;77.05;102581.53;5025886;28;20509;-61
2023/03/04 07:56:37;;;;;;;;;;;;;;;5.16;77.11;102583.97;5023545;28;19917;-61
2023/03/04 07:59:02;;;;;;;;;;;;;;;5.15;77.21;102582.28;5022715;28;19917;-61
2023/03/04 08:01:29;;;;;;;;;;;;;;;5.12;77.33;102577.19;5021362;28;20066;-61
2023/03/04 08:03:54;;;;;;;;;;;;;;;5.20;77.40;102582.00;5026716;28;21625;-61
2023/03/04 08:06:19;;;;;;;;;;;;;;;5.24;76.82;102583.53;5025572;28;19917;-61
2023/03/04 08:08:45;;;;;;;;;;;;;;;5.24;76.74;102580.88;5024769;28;20047;-61
2023/03/04 08:11:12;;;;;;;;;;;;;;;5.25;76.88;102578.16;5025474;28;19982;-61
2023/03/04 08:13:37;;;;;;;;;;;;;;;5.26;77.52;102581.63;5029946;28;19913;-61
2023/03/04 08:16:03;;;;;;;;;;;;;;;5.36;77.02;102588.03;5027229;28;19914;-61
2023/03/04 08:18:28;;;;;;;;;;;;;;;5.36;77.77;102587.19;5029066;28;20079;-61
2023/03/04 08:20:53;;;;;;;;;;;;;;;5.41;78.06;102585.09;5022738;28;20373;-61
2023/03/04 08:23:19;;;;;;;;;;;;;;;5.45;78.69;102586.59;5028139;28;20286;-61
2023/03/04 08:25:45;;;;;;;;;;;;;;;5.52;78.11;102590.59;5030228;28;20405;-62
2023/03/04 08:28:12;;;;;;;;;;;;;;;5.53;78.13;102587.00;5024750;28;19917;-61
2023/03/04 08:30:37;;;;;;;;;;;;;;;5.60;77.84;102593.59;5020861;28;19924;-61
2023/03/04 08:33:02;;;;;;;;;;;;;;;5.65;78.41;102591.50;5025714;28;20068;-61
2023/03/04 08:35:28;;;;;;;;;;;;;;;5.68;78.37;102593.09;5022475;28;19913;-61
2023/03/04 08:37:53;;;;;;;;;;;;;;;5.76;78.68;102601.38;5029871;28;19927;-61
2023/03/04 08:40:18;;;;;;;;;;;;;;;5.83;78.79;102602.69;5028249;28;20003;-61
2023/03/04 08:42:43;;;;;;;;;;;;;;;5.88;78.95;102597.97;5028132;28;19970;-61
2023/03/04 08:45:09;;;;;;;;;;;;;;;5.91;78.87;102603.09;5028004;28;20531;-61
2023/03/04 08:47:34;;;;;;;;;;;;;;;5.98;78.30;102595.63;5029505;28;19917;-61
2023/03/04 08:49:59;;;;;;;;;;;;;;;6.01;78.63;102603.34;5023367;28;19913;-61
2023/03/04 08:52:25;;;;;;;;;;;;;;;6.08;78.61;102596.75;5027535;28;19913;-61
2023/03/04 08:54:50;;;;;;;;;;;;;;;6.13;78.67;102598.16;5028043;28;19913;-62
2023/03/04 08:57:15;;;;;;;;;;;;;;;6.17;78.35;102598.78;5028486;28;19917;-61
2023/03/04 08:59:40;;;;;;;;;;;;;;;6.21;78.37;102597.63;5027881;28;19978;-61
2023/03/04 09:02:05;;;;;;;;;;;;;;;6.27;78.60;102591.13;5025832;28;20004;-61
2023/03/04 09:04:31;;;;;;;;;;;;;;;6.35;78.49;102592.28;5027275;28;19970;-61
2023/03/04 09:06:56;;;;;;;;;;;;;;;6.40;78.68;102587.59;5029680;28;19917;-61
2023/03/04 09:09:21;;;;;;;;;;;;;;;6.50;78.67;102593.09;5019271;28;19917;-61
2023/03/04 09:11:46;;;;;;;;;;;;;;;6.58;78.25;102587.31;5020702;28;19921;-61
2023/03/04 09:14:11;;;;;;;;;;;;;;;6.62;77.72;102576.44;5027407;28;19917;-61
2023/03/04 09:16:36;;;;;;;;;;;;;;;6.66;77.76;102582.38;5029398;28;19913;-61
2023/03/04 09:19:02;;;;;;;;;;;;;;;6.72;77.90;102574.06;5028081;28;19913;-61
2023/03/04 09:21:27;;;;;;;;;;;;;;;6.73;76.97;102573.09;5023722;28;20011;-61
2023/03/04 09:23:52;;;;;;;;;;;;;;;6.72;77.43;102571.41;5023018;28;19917;-61
2023/03/04 09:26:21;;;;;;;;;;;;;;;6.81;77.58;102576.06;5024853;28;19964;-61
2023/03/04 09:28:53;;;;;;;;;;;;;;;6.90;77.17;102564.88;5016495;28;19913;-61
2023/03/04 09:31:19;;;;;;;;;;;;;;;6.96;77.49;102569.75;5019974;28;19917;-61
2023/03/04 09:33:44;;;;;;;;;;;;;;;7.05;77.65;102565.63;5027179;28;19978;-61
2023/03/04 09:36:10;;;;;;;;;;;;;;;7.11;77.23;102566.06;5022364;28;19918;-61
2023/03/04 09:38:37;;;;;;;;;;;;;;;7.10;76.62;102564.34;5027221;28;20390;-61
2023/03/04 09:41:04;;;;;;;;;;;;;;;7.13;76.81;102566.78;5026752;28;19920;-61
2023/03/04 09:43:30;;;;;;;;;;;;;;;7.21;76.85;102568.88;5023698;28;19936;-61
2023/03/04 09:45:57;;;;;;;;;;;;;;;7.26;76.88;102564.16;5019095;28;20028;-60
2023/03/04 09:48:25;;;;;;;;;;;;;;;7.27;76.53;102565.84;5023936;28;20006;-61
2023/03/04 09:51:02;;;;;;;;;;;;;;;7.28;75.89;102566.69;5023524;28;20394;-61
2023/03/04 09:53:43;;;;;;;;;;;;;;;7.22;75.86;102559.16;5022855;28;19924;-61
2023/03/04 09:56:09;;;;;;;;;;;;;;;7.17;75.78;102562.13;5026539;28;20402;-61
2023/03/04 09:58:37;;;;;;;;;;;;;;;7.11;75.64;102559.91;5027395;28;19955;-61
2023/03/04 10:01:03;;;;;;;;;;;;;;;7.13;76.06;102558.00;5028507;28;19925;-61
2023/03/04 10:03:47;;;;;;;;;;;;;;;7.20;76.19;102559.28;5024425;28;20309;-61
2023/03/04 10:06:16;;;;;;;;;;;;;;;7.29;76.39;102560.44;5024884;28;19923;-61
2023/03/04 10:08:48;;;;;;;;;;;;;;;7.38;76.11;102558.00;5023846;28;19968;-61
2023/03/04 10:11:16;;;;;;;;;;;;;;;7.51;76.35;102551.84;5027088;28;20511;-61
2023/03/04 10:13:47;;;;;;;;;;;;;;;7.59;76.15;102557.44;5013507;28;19967;-61
2023/03/04 10:16:15;;;;;;;;;;;;;;;7.60;75.12;102551.22;5026814;28;20456;-61
2023/03/04 10:18:50;;;;;;;;;;;;;;;7.59;75.25;102553.00;5023299;28;20297;-61
2023/03/04 10:21:27;;;;;;;;;;;;;;;7.58;74.84;102556.59;5026288;28;19913;-61
2023/03/04 10:23:53;;;;;;;;;;;;;;;7.50;74.46;102558.94;5025761;28;19971;-61
2023/03/04 10:26:19;;;;;;;;;;;;;;;7.39;74.70;102562.34;5020672;28;19948;-61
2023/03/04 10:28:45;;;;;;;;;;;;;;;7.36;74.99;102551.97;5024604;28;20430;-61
2023/03/04 10:31:26;;;;;;;;;;;;;;;7.35;75.02;102560.03;5025945;28;20000;-61
2023/03/04 10:33:51;;;;;;;;;;;;;;;7.31;74.96;102559.41;5017778;28;19968;-61
2023/03/04 10:36:23;;;;;;;;;;;;;;;7.30;75.26;102556.84;5024168;28;19917;-61
2023/03/04 10:38:48;;;;;;;;;;;;;;;7.28;75.42;102564.06;5023333;28;19948;-61
2023/03/04 10:41:19;;;;;;;;;;;;;;;7.27;76.00;102557.06;5022318;28;19957;-61
2023/03/04 10:43:48;;;;;;;;;;;;;;;7.26;76.31;102558.03;5019611;28;19917;-61
2023/03/04 10:46:14;;;;;;;;;;;;;;;7.26;76.60;102547.47;5024317;28;20431;-61
2023/03/04 10:48:40;;;;;;;;;;;;;;;7.24;76.74;102546.72;5022457;28;19914;-61
2023/03/04 10:51:11;;;;;;;;;;;;;;;7.26;76.58;102550.09;5024283;28;20518;-61
2023/03/04 10:53:37;;;;;;;;;;;;;;;7.27;77.14;102544.72;5028390;28;19917;-61
2023/03/04 10:56:03;;;;;;;;;;;;;;;7.29;77.03;102548.09;5019419;28;19918;-61
2023/03/04 10:58:28;;;;;;;;;;;;;;;7.27;77.49;102547.34;5023923;28;19963;-61
2023/03/04 11:01:01;;;;;;;;;;;;;;;7.26;77.44;102548.31;5020835;28;19918;-61
2023/03/04 11:03:26;;;;;;;;;;;;;;;7.27;77.75;102547.34;5026400;28;20455;-61
2023/03/04 11:06:02;;;;;;;;;;;;;;;7.28;77.94;102542.91;5025449;28;20398;-61
2023/03/04 11:08:27;;;;;;;;;;;;;;;7.30;78.38;102539.19;5023053;28;19917;-62
2023/03/04 11:10:52;;;;;;;;;;;;;;;7.36;78.49;102533.47;5021279;28;19925;-61
2023/03/04 11:13:21;;;;;;;;;;;;;;;7.40;78.55;102527.03;5024089;28;19917;-61
2023/03/04 11:15:52;;;;;;;;;;;;;;;7.46;78.37;102526.59;5027411;28;20017;-61
2023/03/04 11:18:19;;;;;;;;;;;;;;;7.55;78.26;102509.25;5026084;28;19917;-61
2023/03/04 11:20:47;;;;;;;;;;;;;;;7.59;78.54;102520.44;5021754;28;19945;-61
2023/03/04 11:23:18;;;;;;;;;;;;;;;7.67;78.34;102512.78;5027608;28;19924;-61
2023/03/04 11:25:47;;;;;;;;;;;;;;;7.70;78.75;102515.22;5022215;28;20554;-61
2023/03/04 11:28:17;;;;;;;;;;;;;;;7.69;78.18;102509.06;5027651;28;19920;-61
2023/03/04 11:30:49;;;;;;;;;;;;;;;7.60;77.93;102512.41;5019597;28;19921;-61
2023/03/04 11:33:17;;;;;;;;;;;;;;;7.53;78.32;102515.59;5024925;28;19925;-61
2023/03/04 11:36:01;;;;;;;;;;;;;;;7.40;78.38;102511.16;5030560;28;19913;-61
2023/03/04 11:38:30;;;;;;;;;;;;;;;7.32;78.94;102513.50;5026225;28;19929;-61
2023/03/04 11:40:57;;;;;;;;;;;;;;;7.32;79.30;102513.50;5028065;28;20301;-61
2023/03/04 11:43:36;;;;;;;;;;;;;;;7.30;79.36;102506.66;5024721;28;19921;-61
2023/03/04 11:46:01;;;;;;;;;;;;;;;7.29;79.55;102497.03;5023804;28;19921;-61
2023/03/04 11:48:45;;;;;;;;;;;;;;;7.32;79.16;102488.88;5028855;28;19913;-61
2023/03/04 11:51:22;;;;;;;;;;;;;;;7.40;79.85;102486.53;5027666;28;19920;-61
2023/03/04 11:53:57;;;;;;;;;;;;;;;7.53;80.02;102486.50;5029098;28;19913;-61
2023/03/04 11:56:34;;;;;;;;;;;;;;;7.58;80.16;102481.75;5021437;28;19940;-61
2023/03/04 11:59:14;;;;;;;;;;;;;;;7.64;79.94;102478.63;5025973;28;19921;-61
2023/03/04 12:01:39;;;;;;;;;;;;;;;7.75;80.04;102468.97;5023488;28;19920;-61
2023/03/04 12:04:23;;;;;;;;;;;;;;;7.84;80.16;102467.47;5022889;28;19917;-61
2023/03/04 12:07:08;;;;;;;;;;;;;;;8.03;80.27;102466.94;5025663;28;19913;-61
2023/03/04 12:09:48;;;;;;;;;;;;;;;8.10;79.81;102470.81;5024981;28;20418;-61
2023/03/04 12:12:28;;;;;;;;;;;;;;;8.13;79.67;102462.66;5022468;28;19936;-61
2023/03/04 12:14:56;;;;;;;;;;;;;;;8.14;79.22;102456.41;5028875;28;19939;-61
2023/03/04 12:17:24;;;;;;;;;;;;;;;8.15;79.12;102454.59;5020483;28;19974;-61
2023/03/04 12:19:52;;;;;;;;;;;;;;;8.16;78.70;102456.28;5033367;28;19952;-61
2023/03/04 12:22:17;;;;;;;;;;;;;;;8.19;78.94;102446.31;5021489;28;19920;-62
2023/03/04 12:24:59;;;;;;;;;;;;;;;8.23;78.70;102453.06;5029711;28;19914;-61
2023/03/04 12:27:34;;;;;;;;;;;;;;;8.25;78.46;102443.19;5029577;28;19928;-61
2023/03/04 12:30:05;;;;;;;;;;;;;;;8.26;78.28;102442.22;5023110;28;19913;-61
2023/03/04 12:32:45;;;;;;;;;;;;;;;8.23;77.90;102442.47;5028686;28;20007;-61
2023/03/04 12:35:16;;;;;;;;;;;;;;;8.15;77.88;102444.00;5018359;28;19918;-61
2023/03/04 12:37:53;;;;;;;;;;;;;;;7.96;77.62;102423.38;5027734;28;19927;-61
2023/03/04 12:40:37;;;;;;;;;;;;;;;7.97;77.92;102425.06;5024915;28;19996;-61
2023/03/04 12:43:14;;;;;;;;;;;;;;;7.91;77.94;102420.22;5021505;28;19917;-60
2023/03/04 12:45:53;;;;;;;;;;;;;;;7.90;78.10;102416.75;5022683;28;19967;-61